WetterOnline ( https://www.wetteronline.at )

Wetter aktuell Feldberg Gipfel

Aktuelles Wetter: Feldberg/Schwarzwald (1493m)

6-stündlich | Neueste Meldungen
Ortszeit Temperatur Wetter
Mi, 20.11. 19:00 -2.4° C wolkenlos
Mi, 20.11. 13:00 -1.6° C Nebel
Mi, 20.11. 7:00 -3.9° C Nebel
Mi, 20.11. 1:00 -3.8° C Nebel
Di, 19.11. 19:00 -3.6° C bedeckt
Di, 19.11. 13:00 -1.3° C bewölkt
Di, 19.11. 7:00 -3.5° C Nebel
Di, 19.11. 1:00 -3.6° C Nebel
Ortszeit Temperatur Wetter
Mi, 20.11. 23:00 0.3° C bewölkt
Mi, 20.11. 22:50 0.3° C bewölkt
Mi, 20.11. 22:40 0.2° C bewölkt
Mi, 20.11. 22:30 -0.0° C leicht bewölkt
Mi, 20.11. 22:20 -0.0° C leicht bewölkt
Mi, 20.11. 22:10 -0.1° C leicht bewölkt
Mi, 20.11. 22:00 -0.1° C wolkenlos
Mi, 20.11. 21:30 -0.1° C fast wolkenlos
Mi, 20.11. 21:00 -0.9° C wolkenlos
Mi, 20.11. 20:30 -3.3° C wolkenlos
Mi, 20.11. 20:00 -4.0° C fast wolkenlos
Ortszeit Relative Feuchte Sichtweite
Mi, 20.11. 19:00 90% 60 km
Mi, 20.11. 13:00 97% 100 m
Mi, 20.11. 7:00 95% <100 m
Mi, 20.11. 1:00 94% <100 m
Di, 19.11. 19:00 96% 100 m
Di, 19.11. 13:00 99% <100 m
Di, 19.11. 7:00 97% <100 m
Di, 19.11. 1:00 96% <100 m
Ortszeit Relative Feuchte Sichtweite
Mi, 20.11. 23:00 94% 50 km
Mi, 20.11. 22:50 94% -
Mi, 20.11. 22:40 95% -
Mi, 20.11. 22:30 96% 55 km
Mi, 20.11. 22:20 96% -
Mi, 20.11. 22:10 96% -
Mi, 20.11. 22:00 94% 60 km
Mi, 20.11. 21:30 94% >70 km
Mi, 20.11. 21:00 92% >70 km
Mi, 20.11. 20:30 86% >70 km
Mi, 20.11. 20:00 85% >70 km
Ortszeit Niederschlagsmenge Niederschlagsart
Mi, 20.11. 19:00 0.1 l/m2 in 12 Std. Schnee
Mi, 20.11. 13:00 0.1 l/m2 in 6 Std. Niederschlag
Mi, 20.11. 7:00 0.1 l/m2 in 12 Std. Niederschlag
Mi, 20.11. 1:00 0.1 l/m2 in 6 Std. Niederschlag
Di, 19.11. 19:00 0.1 l/m2 in 12 Std. Niederschlag
Di, 19.11. 13:00 0.1 l/m2 in 6 Std. Niederschlag
Di, 19.11. 7:00 0.1 l/m2 in 12 Std. -
Di, 19.11. 1:00 0.1 l/m2 in 6 Std. Niederschlag
Ortszeit Niederschlagsmenge Niederschlagsart
Mi, 20.11. 23:00 0.0 l/m2 in 1 Std. -
Mi, 20.11. 22:50 keine Meldung -
Mi, 20.11. 22:40 keine Meldung -
Mi, 20.11. 22:30 0.0 l/m2 in 1 Std. -
Mi, 20.11. 22:20 keine Meldung -
Mi, 20.11. 22:10 keine Meldung -
Mi, 20.11. 22:00 0.0 l/m2 in 1 Std. -
Mi, 20.11. 21:30 0.0 l/m2 in 1 Std. -
Mi, 20.11. 21:00 0.0 l/m2 in 1 Std. -
Mi, 20.11. 20:30 0.0 l/m2 in 1 Std. -
Mi, 20.11. 20:00 0.0 l/m2 in 1 Std. -
Ortszeit Stärke Spitze Richtung
km/h Bft. km/h Grad Sektor
Mi, 20.11. 19:00 22 4 32 220° SW
Mi, 20.11. 13:00 24 4 46 170° S
Mi, 20.11. 7:00 35 5 46 120° SO
Mi, 20.11. 1:00 25 4 32 100° O
Di, 19.11. 19:00 13 3 19 40° NO
Di, 19.11. 13:00 6 1 19 30° NO
Di, 19.11. 7:00 11 2 37 10° N
Di, 19.11. 1:00 22 4 54 220° SW
Ortszeit Stärke Spitze Richtung
km/h Bft. km/h Grad Sektor
Mi, 20.11. 23:00 24 4 31 300° NW
Mi, 20.11. 22:50 24 4 - 300° NW
Mi, 20.11. 22:40 24 4 - 300° NW
Mi, 20.11. 22:30 22 4 32 290° W
Mi, 20.11. 22:20 22 4 - 290° W
Mi, 20.11. 22:10 22 4 - 280° W
Mi, 20.11. 22:00 24 4 33 280° W
Mi, 20.11. 21:30 25 4 32 270° W
Mi, 20.11. 21:00 24 4 31 260° W
Mi, 20.11. 20:30 20 4 31 250° W
Mi, 20.11. 20:00 22 4 29 250° W
Ortszeit Untergrenze Bedeckung Gattung
total tief tief mittel hoch
Mi, 20.11. 19:00 10500 m 0/8 0/8 - - -
Mi, 20.11. 13:00 <30 m 6/8 0/8 - - -
Mi, 20.11. 7:00 <30 m 8/8 0/8 - - -
Mi, 20.11. 1:00 <30 m 8/8 0/8 - - -
Di, 19.11. 19:00 <30 m 8/8 0/8 - - -
Di, 19.11. 13:00 <30 m 7/8 0/8 - - -
Di, 19.11. 7:00 <30 m 3/8 0/8 - - -
Di, 19.11. 1:00 <30 m 8/8 0/8 - - -
Ortszeit Bedeckungsgrad in Achtel und Wolkenuntergrenze
Mi, 20.11. 23:00 7(6300m)
Mi, 20.11. 22:50 7(6300m)
Mi, 20.11. 22:40 7(6300m)
Mi, 20.11. 22:30 4(6600m)
Mi, 20.11. 22:20 4(6600m)
Mi, 20.11. 22:10 1(6600m) 2(10500m)
Mi, 20.11. 22:00 1(10500m)
Mi, 20.11. 21:30 1(12000m)
Mi, 20.11. 21:00 keine Wolken
Mi, 20.11. 20:30 keine Wolken
Mi, 20.11. 20:00 1(12000m)
Ortszeit Stationsdruck (hPa) Tendenz (hPa in 3 Std.)
Mi, 20.11. 19:00 843 + 0,1
Mi, 20.11. 13:00 843 - 0,8
Mi, 20.11. 7:00 844 - 1,0
Mi, 20.11. 1:00 846 - 0,6
Di, 19.11. 19:00 847 + 0,4
Di, 19.11. 13:00 846 + 0,1
Di, 19.11. 7:00 845 + 0,2
Di, 19.11. 1:00 845 + 0,5
Ortszeit Stationsdruck (hPa) Tendenz (hPa in 3 Std.)
Mi, 20.11. 23:00 842 - 0,4
Mi, 20.11. 22:50 842 keine Meldung
Mi, 20.11. 22:40 842 keine Meldung
Mi, 20.11. 22:30 842 - 0,3
Mi, 20.11. 22:20 842 keine Meldung
Mi, 20.11. 22:10 843 keine Meldung
Mi, 20.11. 22:00 842 - 0,3
Mi, 20.11. 21:30 843 - 0,2
Mi, 20.11. 21:00 842 - 0,2
Mi, 20.11. 20:30 843 0,0
Mi, 20.11. 20:00 843 0,0
Ortszeit Schneehöhe (cm)
Mi, 20.11. 19:00 34
Mi, 20.11. 13:00 34
Mi, 20.11. 7:00 35
Mi, 20.11. 1:00 -
Di, 19.11. 19:00 -
Di, 19.11. 13:00 -
Di, 19.11. 7:00 -
Di, 19.11. 1:00 -
Ortszeit Schneehöhe (cm)
Mi, 20.11. 23:00 34
Mi, 20.11. 22:50 34
Mi, 20.11. 22:40 34
Mi, 20.11. 22:30 34
Mi, 20.11. 22:20 34
Mi, 20.11. 22:10 34
Mi, 20.11. 22:00 34
Mi, 20.11. 21:30 34
Mi, 20.11. 21:00 34
Mi, 20.11. 20:30 34
Mi, 20.11. 20:00 34
Link zu dieser Seite / Seite empfehlen

Das Wetter in ...